Hovedside
METAR-TAF:

METAR-TAF

Lufthavner :

Vadsø, Norge

Vadsø lufthavn

breddegrad: 70-04N, lengdegrad: 029-51E, høyde over havet: 3 m

Gjeldene værobservasjon

Denne rapporten ble laget for 48 minutter siden, klokken 21:50 UTC
Vind 8 kt fra Nord-nordøst
Temperatur 8°C
Luftfuktighet 100%
Trykk 1021 hPa
Sikt: 0800 m
tåke

METAR: ENVD 242150Z 02008KT 0800 FG VV002 08/08 Q1021

Tid: 00:38 (22:38 UTC)

Varsel

Denne rapporten ble laget for 1 time og 40 minutter siden, klokken 20:58 UTC
Varsel gyldig fra 24. klokken 20 UTC til 24. klokken 23 UTC
Vind 8 kt fra Øst-nordøst
Sikt: 9000 m
Spredte skyer i en høyde av 500 ft
Midlertidig
fra 24. klokken 20 UTC til 24. klokken 23 UTC
Sikt: 0500 m
i en høyde av 100 ft
tåke

TAF: ENVD 242058Z 2420/2423 07008KT 9000 SCT005 TEMPO 2420/2423 0500 FG VV001

Værobservasjoner og værvarsel for over 4000 flyplasser (METAR- og TAF-rapporter).

Tilgjengelige stasjoner er representert av de røde og gule prikkene på kartet.

Hold musepekeren over prikken for å se navnet på stasjonen.

Klikk så for å se værobservasjoner og -varsler.

For å forandre kartet kan du klikke på den grønne knappen med svart kryss for å zoome inn, på den grønne knappen med strek for å zoome ut, eller på de grønne pilene for å se tilstøtende kart.


METAR-TAF: